sensor_id;sensor_type;location;lat;lon;timestamp;pressure;altitude;pressure_sealevel;temperature
69597;BMP180;56802;51.184;-115.558;2022-12-18T00:01:36;85918.00;;;-15.76
69597;BMP180;56802;51.184;-115.558;2022-12-18T00:04:10;85913.80;;;-15.80
69597;BMP180;56802;51.184;-115.558;2022-12-18T00:06:43;85912.80;;;-15.80
69597;BMP180;56802;51.184;-115.558;2022-12-18T00:09:11;85922.00;;;-15.80
69597;BMP180;56802;51.184;-115.558;2022-12-18T00:11:40;85916.80;;;-15.86
69597;BMP180;56802;51.184;-115.558;2022-12-18T00:14:13;85920.00;;;-15.90
69597;BMP180;56802;51.184;-115.558;2022-12-18T00:16:45;85916.60;;;-15.90
69597;BMP180;56802;51.184;-115.558;2022-12-18T00:19:15;85923.60;;;-15.92
69597;BMP180;56802;51.184;-115.558;2022-12-18T00:21:44;85920.40;;;-15.98
69597;BMP180;56802;51.184;-115.558;2022-12-18T00:24:12;85921.00;;;-16.00
69597;BMP180;56802;51.184;-115.558;2022-12-18T00:26:41;85915.80;;;-16.10
69597;BMP180;56802;51.184;-115.558;2022-12-18T00:29:13;85917.00;;;-16.10
69597;BMP180;56802;51.184;-115.558;2022-12-18T00:31:43;85909.40;;;-16.20
69597;BMP180;56802;51.184;-115.558;2022-12-18T00:34:12;85905.00;;;-16.22
69597;BMP180;56802;51.184;-115.558;2022-12-18T00:36:42;85908.60;;;-16.30
69597;BMP180;56802;51.184;-115.558;2022-12-18T00:39:11;85903.00;;;-16.22
69597;BMP180;56802;51.184;-115.558;2022-12-18T00:41:40;85917.20;;;-16.22
69597;BMP180;56802;51.184;-115.558;2022-12-18T00:44:27;85911.80;;;-16.20
69597;BMP180;56802;51.184;-115.558;2022-12-18T00:46:55;85914.00;;;-16.20
69597;BMP180;56802;51.184;-115.558;2022-12-18T00:49:23;85927.00;;;-16.30
69597;BMP180;56802;51.184;-115.558;2022-12-18T00:51:52;85926.40;;;-16.30
69597;BMP180;56802;51.184;-115.558;2022-12-18T00:54:20;85922.20;;;-16.40
69597;BMP180;56802;51.184;-115.558;2022-12-18T00:56:49;85920.40;;;-16.46
69597;BMP180;56802;51.184;-115.558;2022-12-18T00:59:18;85912.60;;;-16.50
69597;BMP180;56802;51.184;-115.558;2022-12-18T01:01:47;85922.80;;;-16.56
69597;BMP180;56802;51.184;-115.558;2022-12-18T01:04:16;85916.60;;;-16.60
69597;BMP180;56802;51.184;-115.558;2022-12-18T01:06:44;85920.20;;;-16.62
69597;BMP180;56802;51.184;-115.558;2022-12-18T01:09:13;85933.40;;;-16.70
69597;BMP180;56802;51.184;-115.558;2022-12-18T01:11:42;85931.40;;;-16.70
69597;BMP180;56802;51.184;-115.558;2022-12-18T01:14:10;85933.00;;;-16.80
69597;BMP180;56802;51.184;-115.558;2022-12-18T01:16:39;85916.80;;;-16.80
69597;BMP180;56802;51.184;-115.558;2022-12-18T01:19:07;85923.40;;;-16.90
69597;BMP180;56802;51.184;-115.558;2022-12-18T01:21:36;85915.40;;;-16.94
69597;BMP180;56802;51.184;-115.558;2022-12-18T01:24:05;85917.40;;;-17.00
69597;BMP180;56802;51.184;-115.558;2022-12-18T01:26:34;85917.40;;;-17.00
69597;BMP180;56802;51.184;-115.558;2022-12-18T01:29:03;85921.40;;;-17.10
69597;BMP180;56802;51.184;-115.558;2022-12-18T01:31:33;85920.20;;;-17.18
69597;BMP180;56802;51.184;-115.558;2022-12-18T01:34:04;85920.20;;;-17.20
69597;BMP180;56802;51.184;-115.558;2022-12-18T01:36:36;85928.40;;;-17.20
69597;BMP180;56802;51.184;-115.558;2022-12-18T01:39:09;85930.00;;;-17.20
69597;BMP180;56802;51.184;-115.558;2022-12-18T01:41:39;85923.00;;;-17.20
69597;BMP180;56802;51.184;-115.558;2022-12-18T01:45:06;85931.40;;;-17.20
69597;BMP180;56802;51.184;-115.558;2022-12-18T01:47:52;85916.20;;;-17.20
69597;BMP180;56802;51.184;-115.558;2022-12-18T01:53:22;85919.80;;;-17.30
69597;BMP180;56802;51.184;-115.558;2022-12-18T01:55:56;85921.00;;;-17.30
69597;BMP180;56802;51.184;-115.558;2022-12-18T01:59:01;85929.00;;;-17.30
69597;BMP180;56802;51.184;-115.558;2022-12-18T02:01:32;85939.60;;;-17.30
69597;BMP180;56802;51.184;-115.558;2022-12-18T02:04:25;85927.60;;;-17.30
69597;BMP180;56802;51.184;-115.558;2022-12-18T02:07:20;85928.40;;;-17.30
69597;BMP180;56802;51.184;-115.558;2022-12-18T02:10:03;85946.00;;;-17.36
69597;BMP180;56802;51.184;-115.558;2022-12-18T02:12:51;85942.40;;;-17.40
69597;BMP180;56802;51.184;-115.558;2022-12-18T02:16:07;85933.80;;;-17.40
69597;BMP180;56802;51.184;-115.558;2022-12-18T02:18:43;85940.20;;;-17.40
69597;BMP180;56802;51.184;-115.558;2022-12-18T02:21:30;85962.40;;;-17.48
69597;BMP180;56802;51.184;-115.558;2022-12-18T02:27:06;85942.20;;;-17.58
69597;BMP180;56802;51.184;-115.558;2022-12-18T02:29:50;85942.00;;;-17.60
69597;BMP180;56802;51.184;-115.558;2022-12-18T02:32:42;85955.40;;;-17.60
69597;BMP180;56802;51.184;-115.558;2022-12-18T02:35:17;85966.20;;;-17.60
69597;BMP180;56802;51.184;-115.558;2022-12-18T02:37:48;85961.80;;;-17.60
69597;BMP180;56802;51.184;-115.558;2022-12-18T02:40:18;85957.60;;;-17.62
69597;BMP180;56802;51.184;-115.558;2022-12-18T02:42:47;85959.00;;;-17.62
69597;BMP180;56802;51.184;-115.558;2022-12-18T02:45:16;85955.60;;;-17.70
69597;BMP180;56802;51.184;-115.558;2022-12-18T02:47:49;85958.40;;;-17.72
69597;BMP180;56802;51.184;-115.558;2022-12-18T02:50:43;85954.80;;;-17.80
69597;BMP180;56802;51.184;-115.558;2022-12-18T02:54:27;85962.40;;;-17.80
69597;BMP180;56802;51.184;-115.558;2022-12-18T02:56:51;85977.40;;;-17.80
69597;BMP180;56802;51.184;-115.558;2022-12-18T02:59:55;85968.20;;;-17.90
69597;BMP180;56802;51.184;-115.558;2022-12-18T03:02:50;85972.20;;;-17.90
69597;BMP180;56802;51.184;-115.558;2022-12-18T03:05:47;85961.20;;;-18.00
69597;BMP180;56802;51.184;-115.558;2022-12-18T03:08:41;85955.60;;;-18.00
69597;BMP180;56802;51.184;-115.558;2022-12-18T03:11:13;85960.40;;;-18.00
69597;BMP180;56802;51.184;-115.558;2022-12-18T03:13:52;85957.20;;;-18.00
69597;BMP180;56802;51.184;-115.558;2022-12-18T03:16:30;85976.40;;;-18.00
69597;BMP180;56802;51.184;-115.558;2022-12-18T03:19:16;85977.00;;;-18.00
69597;BMP180;56802;51.184;-115.558;2022-12-18T03:21:54;85985.20;;;-18.00
69597;BMP180;56802;51.184;-115.558;2022-12-18T03:24:27;85978.40;;;-18.02
69597;BMP180;56802;51.184;-115.558;2022-12-18T03:27:03;85974.40;;;-18.10
69597;BMP180;56802;51.184;-115.558;2022-12-18T03:30:06;85983.00;;;-18.10
69597;BMP180;56802;51.184;-115.558;2022-12-18T03:32:52;85984.40;;;-18.10
69597;BMP180;56802;51.184;-115.558;2022-12-18T03:35:36;85985.40;;;-18.10
69597;BMP180;56802;51.184;-115.558;2022-12-18T03:38:08;85988.40;;;-18.20
69597;BMP180;56802;51.184;-115.558;2022-12-18T03:41:10;85978.60;;;-18.20
69597;BMP180;56802;51.184;-115.558;2022-12-18T03:49:46;85987.40;;;-18.30
69597;BMP180;56802;51.184;-115.558;2022-12-18T03:55:42;85986.60;;;-18.30
69597;BMP180;56802;51.184;-115.558;2022-12-18T03:58:17;85997.40;;;-18.30
69597;BMP180;56802;51.184;-115.558;2022-12-18T04:00:50;85980.00;;;-18.30
69597;BMP180;56802;51.184;-115.558;2022-12-18T04:03:21;85991.80;;;-18.30
69597;BMP180;56802;51.184;-115.558;2022-12-18T04:05:55;86004.00;;;-18.38
69597;BMP180;56802;51.184;-115.558;2022-12-18T04:08:26;85996.00;;;-18.40
69597;BMP180;56802;51.184;-115.558;2022-12-18T04:10:55;86004.00;;;-18.42
69597;BMP180;56802;51.184;-115.558;2022-12-18T04:13:37;86005.60;;;-18.50
69597;BMP180;56802;51.184;-115.558;2022-12-18T04:16:06;86007.80;;;-18.50
69597;BMP180;56802;51.184;-115.558;2022-12-18T04:18:35;86010.40;;;-18.50
69597;BMP180;56802;51.184;-115.558;2022-12-18T04:21:04;86004.00;;;-18.56
69597;BMP180;56802;51.184;-115.558;2022-12-18T04:23:32;86008.60;;;-18.60
69597;BMP180;56802;51.184;-115.558;2022-12-18T04:26:01;86010.80;;;-18.70
69597;BMP180;56802;51.184;-115.558;2022-12-18T04:28:29;86007.40;;;-18.72
69597;BMP180;56802;51.184;-115.558;2022-12-18T04:30:57;86016.40;;;-18.80
69597;BMP180;56802;51.184;-115.558;2022-12-18T04:33:26;86006.60;;;-18.80
69597;BMP180;56802;51.184;-115.558;2022-12-18T04:35:54;86008.60;;;-18.80
69597;BMP180;56802;51.184;-115.558;2022-12-18T04:38:22;86017.20;;;-18.80
69597;BMP180;56802;51.184;-115.558;2022-12-18T04:40:50;86003.00;;;-18.90
69597;BMP180;56802;51.184;-115.558;2022-12-18T04:43:19;86003.60;;;-18.90
69597;BMP180;56802;51.184;-115.558;2022-12-18T04:45:48;86007.60;;;-18.92
69597;BMP180;56802;51.184;-115.558;2022-12-18T04:48:19;86010.60;;;-19.00
69597;BMP180;56802;51.184;-115.558;2022-12-18T04:50:48;86004.20;;;-19.10
69597;BMP180;56802;51.184;-115.558;2022-12-18T04:53:16;86021.40;;;-19.10
69597;BMP180;56802;51.184;-115.558;2022-12-18T04:55:45;86014.40;;;-19.10
69597;BMP180;56802;51.184;-115.558;2022-12-18T04:58:13;86017.20;;;-19.20
69597;BMP180;56802;51.184;-115.558;2022-12-18T05:00:42;86011.60;;;-19.30
69597;BMP180;56802;51.184;-115.558;2022-12-18T05:03:10;86013.40;;;-19.30
69597;BMP180;56802;51.184;-115.558;2022-12-18T05:05:39;86011.40;;;-19.30
69597;BMP180;56802;51.184;-115.558;2022-12-18T05:08:07;86011.40;;;-19.40
69597;BMP180;56802;51.184;-115.558;2022-12-18T05:10:37;86014.00;;;-19.40
69597;BMP180;56802;51.184;-115.558;2022-12-18T05:13:05;86015.80;;;-19.40
69597;BMP180;56802;51.184;-115.558;2022-12-18T05:15:34;86018.60;;;-19.44
69597;BMP180;56802;51.184;-115.558;2022-12-18T05:18:03;86014.60;;;-19.50
69597;BMP180;56802;51.184;-115.558;2022-12-18T05:20:32;86026.80;;;-19.46
69597;BMP180;56802;51.184;-115.558;2022-12-18T05:23:00;86017.80;;;-19.48
69597;BMP180;56802;51.184;-115.558;2022-12-18T05:25:29;86007.00;;;-19.50
69597;BMP180;56802;51.184;-115.558;2022-12-18T05:27:57;86011.80;;;-19.54
69597;BMP180;56802;51.184;-115.558;2022-12-18T05:30:27;86017.60;;;-19.60
69597;BMP180;56802;51.184;-115.558;2022-12-18T05:32:55;86013.20;;;-19.60
69597;BMP180;56802;51.184;-115.558;2022-12-18T05:35:24;86015.00;;;-19.60
69597;BMP180;56802;51.184;-115.558;2022-12-18T05:37:52;86014.00;;;-19.60
69597;BMP180;56802;51.184;-115.558;2022-12-18T05:40:20;86007.00;;;-19.60
69597;BMP180;56802;51.184;-115.558;2022-12-18T05:42:49;86019.20;;;-19.60
69597;BMP180;56802;51.184;-115.558;2022-12-18T05:45:17;86018.20;;;-19.62
69597;BMP180;56802;51.184;-115.558;2022-12-18T05:47:46;86015.60;;;-19.70
69597;BMP180;56802;51.184;-115.558;2022-12-18T05:50:14;86021.80;;;-19.70
69597;BMP180;56802;51.184;-115.558;2022-12-18T05:52:45;86017.00;;;-19.74
69597;BMP180;56802;51.184;-115.558;2022-12-18T05:55:14;86011.20;;;-19.80
69597;BMP180;56802;51.184;-115.558;2022-12-18T05:57:43;86017.40;;;-19.82
69597;BMP180;56802;51.184;-115.558;2022-12-18T06:00:13;86022.40;;;-19.90
69597;BMP180;56802;51.184;-115.558;2022-12-18T06:02:41;86022.60;;;-19.90
69597;BMP180;56802;51.184;-115.558;2022-12-18T06:05:10;86037.00;;;-19.90
69597;BMP180;56802;51.184;-115.558;2022-12-18T06:07:38;86030.20;;;-19.92
69597;BMP180;56802;51.184;-115.558;2022-12-18T06:10:07;86019.00;;;-19.92
69597;BMP180;56802;51.184;-115.558;2022-12-18T06:12:36;86025.00;;;-20.00
69597;BMP180;56802;51.184;-115.558;2022-12-18T06:15:05;86030.60;;;-20.00
69597;BMP180;56802;51.184;-115.558;2022-12-18T06:17:35;86033.60;;;-20.00
69597;BMP180;56802;51.184;-115.558;2022-12-18T06:20:05;86041.40;;;-20.00
69597;BMP180;56802;51.184;-115.558;2022-12-18T06:22:34;86036.40;;;-20.10
69597;BMP180;56802;51.184;-115.558;2022-12-18T06:25:03;86043.00;;;-20.10
69597;BMP180;56802;51.184;-115.558;2022-12-18T06:27:32;86035.60;;;-20.10
69597;BMP180;56802;51.184;-115.558;2022-12-18T06:30:02;86046.40;;;-20.10
69597;BMP180;56802;51.184;-115.558;2022-12-18T06:32:30;86049.40;;;-20.20
69597;BMP180;56802;51.184;-115.558;2022-12-18T06:34:59;86051.20;;;-20.10
69597;BMP180;56802;51.184;-115.558;2022-12-18T06:37:27;86049.80;;;-20.10
69597;BMP180;56802;51.184;-115.558;2022-12-18T06:39:56;86056.20;;;-20.12
69597;BMP180;56802;51.184;-115.558;2022-12-18T06:42:24;86057.80;;;-20.10
69597;BMP180;56802;51.184;-115.558;2022-12-18T06:44:56;86052.60;;;-20.16
69597;BMP180;56802;51.184;-115.558;2022-12-18T06:47:24;86055.40;;;-20.20
69597;BMP180;56802;51.184;-115.558;2022-12-18T06:49:55;86057.60;;;-20.20
69597;BMP180;56802;51.184;-115.558;2022-12-18T06:52:24;86056.60;;;-20.20
69597;BMP180;56802;51.184;-115.558;2022-12-18T06:54:52;86055.00;;;-20.22
69597;BMP180;56802;51.184;-115.558;2022-12-18T06:57:20;86048.00;;;-20.24
69597;BMP180;56802;51.184;-115.558;2022-12-18T06:59:48;86053.80;;;-20.30
69597;BMP180;56802;51.184;-115.558;2022-12-18T07:02:17;86066.60;;;-20.28
69597;BMP180;56802;51.184;-115.558;2022-12-18T07:04:45;86060.60;;;-20.30
69597;BMP180;56802;51.184;-115.558;2022-12-18T07:07:13;86058.40;;;-20.30
69597;BMP180;56802;51.184;-115.558;2022-12-18T07:09:41;86068.80;;;-20.22
69597;BMP180;56802;51.184;-115.558;2022-12-18T07:12:10;86068.00;;;-20.22
69597;BMP180;56802;51.184;-115.558;2022-12-18T07:14:39;86072.20;;;-20.26
69597;BMP180;56802;51.184;-115.558;2022-12-18T07:17:08;86065.20;;;-20.30
69597;BMP180;56802;51.184;-115.558;2022-12-18T07:19:36;86070.20;;;-20.34
69597;BMP180;56802;51.184;-115.558;2022-12-18T07:22:05;86077.40;;;-20.40
69597;BMP180;56802;51.184;-115.558;2022-12-18T07:24:34;86079.20;;;-20.40
69597;BMP180;56802;51.184;-115.558;2022-12-18T07:27:03;86071.40;;;-20.40
69597;BMP180;56802;51.184;-115.558;2022-12-18T07:29:34;86076.80;;;-20.40
69597;BMP180;56802;51.184;-115.558;2022-12-18T07:32:02;86080.60;;;-20.40
69597;BMP180;56802;51.184;-115.558;2022-12-18T07:34:31;86080.40;;;-20.40
69597;BMP180;56802;51.184;-115.558;2022-12-18T07:36:59;86082.20;;;-20.42
69597;BMP180;56802;51.184;-115.558;2022-12-18T07:39:28;86077.80;;;-20.50
69597;BMP180;56802;51.184;-115.558;2022-12-18T07:41:56;86075.00;;;-20.50
69597;BMP180;56802;51.184;-115.558;2022-12-18T07:44:43;86074.80;;;-20.50
69597;BMP180;56802;51.184;-115.558;2022-12-18T07:47:11;86078.60;;;-20.50
69597;BMP180;56802;51.184;-115.558;2022-12-18T07:49:40;86085.20;;;-20.50
69597;BMP180;56802;51.184;-115.558;2022-12-18T07:52:08;86078.60;;;-20.50
69597;BMP180;56802;51.184;-115.558;2022-12-18T07:54:37;86078.20;;;-20.50
69597;BMP180;56802;51.184;-115.558;2022-12-18T07:57:07;86083.00;;;-20.50
69597;BMP180;56802;51.184;-115.558;2022-12-18T07:59:55;86084.60;;;-20.54
69597;BMP180;56802;51.184;-115.558;2022-12-18T08:02:24;86087.40;;;-20.58
69597;BMP180;56802;51.184;-115.558;2022-12-18T08:04:52;86093.40;;;-20.58
69597;BMP180;56802;51.184;-115.558;2022-12-18T08:07:21;86087.80;;;-20.60
69597;BMP180;56802;51.184;-115.558;2022-12-18T08:09:49;86088.40;;;-20.60
69597;BMP180;56802;51.184;-115.558;2022-12-18T08:12:18;86087.00;;;-20.60
69597;BMP180;56802;51.184;-115.558;2022-12-18T08:14:46;86088.00;;;-20.60
69597;BMP180;56802;51.184;-115.558;2022-12-18T08:17:15;86084.20;;;-20.58
69597;BMP180;56802;51.184;-115.558;2022-12-18T08:19:44;86086.40;;;-20.50
69597;BMP180;56802;51.184;-115.558;2022-12-18T08:22:12;86081.00;;;-20.50
69597;BMP180;56802;51.184;-115.558;2022-12-18T08:24:43;86084.40;;;-20.50
69597;BMP180;56802;51.184;-115.558;2022-12-18T08:27:11;86094.20;;;-20.54
69597;BMP180;56802;51.184;-115.558;2022-12-18T08:29:57;86089.00;;;-20.56
69597;BMP180;56802;51.184;-115.558;2022-12-18T08:32:27;86087.20;;;-20.58
69597;BMP180;56802;51.184;-115.558;2022-12-18T08:34:55;86086.20;;;-20.60
69597;BMP180;56802;51.184;-115.558;2022-12-18T08:37:25;86084.00;;;-20.60
69597;BMP180;56802;51.184;-115.558;2022-12-18T08:39:53;86078.80;;;-20.60
69597;BMP180;56802;51.184;-115.558;2022-12-18T08:42:22;86085.20;;;-20.70
69597;BMP180;56802;51.184;-115.558;2022-12-18T08:45:09;86082.40;;;-20.70
69597;BMP180;56802;51.184;-115.558;2022-12-18T08:47:37;86088.20;;;-20.70
69597;BMP180;56802;51.184;-115.558;2022-12-18T08:50:06;86092.60;;;-20.72
69597;BMP180;56802;51.184;-115.558;2022-12-18T08:52:35;86086.00;;;-20.80
69597;BMP180;56802;51.184;-115.558;2022-12-18T08:55:04;86090.60;;;-20.80
69597;BMP180;56802;51.184;-115.558;2022-12-18T08:57:33;86098.40;;;-20.76
69597;BMP180;56802;51.184;-115.558;2022-12-18T09:00:01;86097.20;;;-20.76
69597;BMP180;56802;51.184;-115.558;2022-12-18T09:02:29;86108.60;;;-20.80
69597;BMP180;56802;51.184;-115.558;2022-12-18T09:04:58;86112.60;;;-20.80
69597;BMP180;56802;51.184;-115.558;2022-12-18T09:07:27;86112.20;;;-20.80
69597;BMP180;56802;51.184;-115.558;2022-12-18T09:09:55;86115.40;;;-20.88
69597;BMP180;56802;51.184;-115.558;2022-12-18T09:12:23;86117.80;;;-20.90
69597;BMP180;56802;51.184;-115.558;2022-12-18T09:14:51;86119.80;;;-20.90
69597;BMP180;56802;51.184;-115.558;2022-12-18T09:17:20;86123.40;;;-20.84
69597;BMP180;56802;51.184;-115.558;2022-12-18T09:19:48;86124.40;;;-20.80
69597;BMP180;56802;51.184;-115.558;2022-12-18T09:22:17;86124.80;;;-20.80
69597;BMP180;56802;51.184;-115.558;2022-12-18T09:24:45;86128.40;;;-20.86
69597;BMP180;56802;51.184;-115.558;2022-12-18T09:27:14;86133.60;;;-20.90
69597;BMP180;56802;51.184;-115.558;2022-12-18T09:29:42;86127.20;;;-20.90
69597;BMP180;56802;51.184;-115.558;2022-12-18T09:32:11;86136.40;;;-20.96
69597;BMP180;56802;51.184;-115.558;2022-12-18T09:34:45;86131.20;;;-21.00
69597;BMP180;56802;51.184;-115.558;2022-12-18T09:37:13;86131.80;;;-21.00
69597;BMP180;56802;51.184;-115.558;2022-12-18T09:39:42;86131.20;;;-21.00
69597;BMP180;56802;51.184;-115.558;2022-12-18T09:42:22;86130.80;;;-21.00
69597;BMP180;56802;51.184;-115.558;2022-12-18T09:44:53;86139.60;;;-21.00
69597;BMP180;56802;51.184;-115.558;2022-12-18T09:47:28;86139.00;;;-21.00
69597;BMP180;56802;51.184;-115.558;2022-12-18T09:50:15;86144.60;;;-21.00
69597;BMP180;56802;51.184;-115.558;2022-12-18T09:52:54;86146.20;;;-21.00
69597;BMP180;56802;51.184;-115.558;2022-12-18T09:55:36;86158.00;;;-21.00
69597;BMP180;56802;51.184;-115.558;2022-12-18T09:58:49;86151.20;;;-21.00
69597;BMP180;56802;51.184;-115.558;2022-12-18T10:01:23;86153.40;;;-21.00
69597;BMP180;56802;51.184;-115.558;2022-12-18T10:03:57;86151.80;;;-21.10
69597;BMP180;56802;51.184;-115.558;2022-12-18T10:12:59;86154.40;;;-21.20
69597;BMP180;56802;51.184;-115.558;2022-12-18T10:15:36;86164.00;;;-21.10
69597;BMP180;56802;51.184;-115.558;2022-12-18T10:19:03;86172.80;;;-21.18
69597;BMP180;56802;51.184;-115.558;2022-12-18T10:21:43;86169.80;;;-21.20
69597;BMP180;56802;51.184;-115.558;2022-12-18T10:27:19;86166.40;;;-21.20
69597;BMP180;56802;51.184;-115.558;2022-12-18T10:29:49;86162.80;;;-21.22
69597;BMP180;56802;51.184;-115.558;2022-12-18T10:32:29;86169.40;;;-21.20
69597;BMP180;56802;51.184;-115.558;2022-12-18T10:34:58;86168.80;;;-21.20
69597;BMP180;56802;51.184;-115.558;2022-12-18T10:37:29;86170.20;;;-21.20
69597;BMP180;56802;51.184;-115.558;2022-12-18T10:40:14;86166.40;;;-21.20
69597;BMP180;56802;51.184;-115.558;2022-12-18T10:43:14;86178.20;;;-21.20
69597;BMP180;56802;51.184;-115.558;2022-12-18T10:46:19;86182.20;;;-21.20
69597;BMP180;56802;51.184;-115.558;2022-12-18T10:49:02;86181.60;;;-21.22
69597;BMP180;56802;51.184;-115.558;2022-12-18T10:51:38;86181.00;;;-21.20
69597;BMP180;56802;51.184;-115.558;2022-12-18T10:54:22;86179.80;;;-21.20
69597;BMP180;56802;51.184;-115.558;2022-12-18T10:56:50;86173.20;;;-21.22
69597;BMP180;56802;51.184;-115.558;2022-12-18T10:59:20;86178.80;;;-21.28
69597;BMP180;56802;51.184;-115.558;2022-12-18T11:01:58;86171.80;;;-21.28
69597;BMP180;56802;51.184;-115.558;2022-12-18T11:04:33;86160.40;;;-21.30
69597;BMP180;56802;51.184;-115.558;2022-12-18T11:07:08;86157.20;;;-21.30
69597;BMP180;56802;51.184;-115.558;2022-12-18T11:09:41;86165.20;;;-21.28
69597;BMP180;56802;51.184;-115.558;2022-12-18T11:12:22;86168.20;;;-21.30
69597;BMP180;56802;51.184;-115.558;2022-12-18T11:14:53;86167.20;;;-21.30
69597;BMP180;56802;51.184;-115.558;2022-12-18T11:17:33;86155.40;;;-21.30
69597;BMP180;56802;51.184;-115.558;2022-12-18T11:23:04;86153.60;;;-21.30
69597;BMP180;56802;51.184;-115.558;2022-12-18T11:25:34;86149.80;;;-21.36
69597;BMP180;56802;51.184;-115.558;2022-12-18T11:31:27;86151.20;;;-21.30
69597;BMP180;56802;51.184;-115.558;2022-12-18T11:36:48;86157.20;;;-21.26
69597;BMP180;56802;51.184;-115.558;2022-12-18T11:40:40;86161.20;;;-21.26
69597;BMP180;56802;51.184;-115.558;2022-12-18T11:42:57;86162.40;;;-21.20
69597;BMP180;56802;51.184;-115.558;2022-12-18T11:45:45;86174.80;;;-21.22
69597;BMP180;56802;51.184;-115.558;2022-12-18T11:48:33;86164.20;;;-21.30
69597;BMP180;56802;51.184;-115.558;2022-12-18T11:51:08;86164.80;;;-21.30
69597;BMP180;56802;51.184;-115.558;2022-12-18T11:53:38;86162.00;;;-21.30
69597;BMP180;56802;51.184;-115.558;2022-12-18T11:56:29;86165.20;;;-21.34
69597;BMP180;56802;51.184;-115.558;2022-12-18T12:08:01;86168.80;;;-21.40
69597;BMP180;56802;51.184;-115.558;2022-12-18T12:11:06;86161.80;;;-21.40
69597;BMP180;56802;51.184;-115.558;2022-12-18T12:16:59;86159.00;;;-21.40
69597;BMP180;56802;51.184;-115.558;2022-12-18T12:25:58;86157.60;;;-21.50
69597;BMP180;56802;51.184;-115.558;2022-12-18T12:39:44;86166.20;;;-21.50
69597;BMP180;56802;51.184;-115.558;2022-12-18T12:45:26;86154.40;;;-21.50
69597;BMP180;56802;51.184;-115.558;2022-12-18T12:47:58;86155.00;;;-21.46
69597;BMP180;56802;51.184;-115.558;2022-12-18T12:50:28;86159.80;;;-21.40
69597;BMP180;56802;51.184;-115.558;2022-12-18T12:53:06;86166.60;;;-21.40
69597;BMP180;56802;51.184;-115.558;2022-12-18T12:55:36;86162.00;;;-21.40
69597;BMP180;56802;51.184;-115.558;2022-12-18T13:01:25;86161.20;;;-21.40
69597;BMP180;56802;51.184;-115.558;2022-12-18T13:04:45;86157.80;;;-21.40
69597;BMP180;56802;51.184;-115.558;2022-12-18T13:07:24;86176.20;;;-21.40
69597;BMP180;56802;51.184;-115.558;2022-12-18T13:13:10;86167.80;;;-21.40
69597;BMP180;56802;51.184;-115.558;2022-12-18T13:16:07;86166.20;;;-21.50
69597;BMP180;56802;51.184;-115.558;2022-12-18T13:18:37;86166.80;;;-21.52
69597;BMP180;56802;51.184;-115.558;2022-12-18T13:21:26;86158.60;;;-21.50
69597;BMP180;56802;51.184;-115.558;2022-12-18T13:23:56;86161.40;;;-21.48
69597;BMP180;56802;51.184;-115.558;2022-12-18T13:26:30;86154.20;;;-21.50
69597;BMP180;56802;51.184;-115.558;2022-12-18T13:29:03;86166.40;;;-21.50
69597;BMP180;56802;51.184;-115.558;2022-12-18T13:34:21;86167.40;;;-21.50
69597;BMP180;56802;51.184;-115.558;2022-12-18T13:36:57;86166.20;;;-21.52
69597;BMP180;56802;51.184;-115.558;2022-12-18T13:39:44;86172.80;;;-21.50
69597;BMP180;56802;51.184;-115.558;2022-12-18T13:45:02;86170.00;;;-21.52
69597;BMP180;56802;51.184;-115.558;2022-12-18T13:47:50;86163.40;;;-21.60
69597;BMP180;56802;51.184;-115.558;2022-12-18T13:50:25;86164.40;;;-21.60
69597;BMP180;56802;51.184;-115.558;2022-12-18T13:53:04;86158.60;;;-21.54
69597;BMP180;56802;51.184;-115.558;2022-12-18T13:55:33;86163.80;;;-21.60
69597;BMP180;56802;51.184;-115.558;2022-12-18T13:58:06;86165.60;;;-21.60
69597;BMP180;56802;51.184;-115.558;2022-12-18T14:00:35;86159.20;;;-21.60
69597;BMP180;56802;51.184;-115.558;2022-12-18T14:03:28;86162.20;;;-21.60
69597;BMP180;56802;51.184;-115.558;2022-12-18T14:06:03;86167.40;;;-21.60
69597;BMP180;56802;51.184;-115.558;2022-12-18T14:08:43;86161.80;;;-21.60
69597;BMP180;56802;51.184;-115.558;2022-12-18T14:11:22;86164.00;;;-21.60
69597;BMP180;56802;51.184;-115.558;2022-12-18T14:13:53;86166.20;;;-21.60
69597;BMP180;56802;51.184;-115.558;2022-12-18T14:16:22;86171.20;;;-21.60
69597;BMP180;56802;51.184;-115.558;2022-12-18T14:18:57;86171.00;;;-21.60
69597;BMP180;56802;51.184;-115.558;2022-12-18T14:21:49;86177.20;;;-21.60
69597;BMP180;56802;51.184;-115.558;2022-12-18T14:24:20;86182.40;;;-21.60
69597;BMP180;56802;51.184;-115.558;2022-12-18T14:26:50;86175.00;;;-21.60
69597;BMP180;56802;51.184;-115.558;2022-12-18T14:29:27;86182.40;;;-21.60
69597;BMP180;56802;51.184;-115.558;2022-12-18T14:32:16;86185.00;;;-21.60
69597;BMP180;56802;51.184;-115.558;2022-12-18T14:34:53;86179.40;;;-21.66
69597;BMP180;56802;51.184;-115.558;2022-12-18T14:37:25;86178.20;;;-21.74
69597;BMP180;56802;51.184;-115.558;2022-12-18T14:40:00;86173.40;;;-21.76
69597;BMP180;56802;51.184;-115.558;2022-12-18T14:42:37;86184.60;;;-21.80
69597;BMP180;56802;51.184;-115.558;2022-12-18T14:48:20;86179.60;;;-21.80
69597;BMP180;56802;51.184;-115.558;2022-12-18T14:53:45;86181.80;;;-21.80
69597;BMP180;56802;51.184;-115.558;2022-12-18T14:56:23;86189.60;;;-21.80
69597;BMP180;56802;51.184;-115.558;2022-12-18T14:59:13;86189.60;;;-21.78
69597;BMP180;56802;51.184;-115.558;2022-12-18T15:02:18;86191.00;;;-21.80
69597;BMP180;56802;51.184;-115.558;2022-12-18T15:04:53;86181.40;;;-21.80
69597;BMP180;56802;51.184;-115.558;2022-12-18T15:07:27;86188.00;;;-21.88
69597;BMP180;56802;51.184;-115.558;2022-12-18T15:10:13;86186.00;;;-21.90
69597;BMP180;56802;51.184;-115.558;2022-12-18T15:12:47;86181.20;;;-21.90
69597;BMP180;56802;51.184;-115.558;2022-12-18T15:18:17;86182.60;;;-21.90
69597;BMP180;56802;51.184;-115.558;2022-12-18T15:21:08;86179.60;;;-21.96
69597;BMP180;56802;51.184;-115.558;2022-12-18T15:26:17;86193.40;;;-22.00
69597;BMP180;56802;51.184;-115.558;2022-12-18T15:28:56;86190.00;;;-22.00
69597;BMP180;56802;51.184;-115.558;2022-12-18T15:31:32;86187.80;;;-21.98
69597;BMP180;56802;51.184;-115.558;2022-12-18T15:34:22;86191.20;;;-22.00